Keumyang Family — DSNO8 — position and weather

sailwx.info

Track history (hours):
 
Tides and Currents Weather Stations Pressure Air Temp Water Temp Dewpoint Dewpoint Depression Visibility Wind Speed Wind Dir Waves Ship Positions

Keumyang Family

Last reported at 2014-Nov-10 04:26 UTC. Time now 2014-Nov-28 12:17 UTC.
Position N 35°11' E 139°46'.
Warning: this ship's position is 18 days out of date.

Length 95 m; draft 4 m.

Type: Cargo ship. MMSI: 441416000.

Date/timePositionNaut miles runAvg speedWind from/ knotsBaromVisibWave heightAir tempDewpointWater temp
2014-Nov-10 04:26N 35°11' E 139°46'7 8.4
2014-Nov-10 03:33N 35°18' E 139°44'6 6.1
2014-Nov-10 02:31N 35°23' E 139°38'0 0.1
2014-Nov-10 01:31N 35°23' E 139°38'0 0.0
2014-Nov-10 00:28N 35°23' E 139°38'0 0.0
2014-Nov-09 23:31N 35°23' E 139°38'1 0.9
2014-Nov-09 22:31N 35°23' E 139°39'0 0.2
2014-Nov-09 21:31N 35°23' E 139°40'0 0.0
2014-Nov-09 20:31N 35°23' E 139°40'0 0.0
2014-Nov-09 19:31N 35°23' E 139°40'0 0.0
2014-Nov-09 18:31N 35°23' E 139°40'0 0.0
2014-Nov-09 17:31N 35°23' E 139°40'0 0.1
2014-Nov-09 16:31N 35°23' E 139°40'0 0.0
2014-Nov-09 15:31N 35°23' E 139°40'0 0.0
2014-Nov-09 14:31N 35°23' E 139°40'0 0.0
2014-Nov-09 13:31N 35°23' E 139°40'0 0.0
2014-Nov-09 12:31N 35°23' E 139°40'0 0.0
2014-Nov-09 11:31N 35°23' E 139°40'0 0.0
2014-Nov-09 10:31N 35°23' E 139°40'0 0.0
2014-Nov-09 09:28N 35°23' E 139°40'0 0.0
2014-Nov-09 08:31N 35°23' E 139°40'0 0.0
2014-Nov-09 07:31N 35°23' E 139°40'0 0.0
2014-Nov-09 06:31N 35°23' E 139°40'0 0.1
2014-Nov-09 05:31N 35°23' E 139°40'0 0.0
2014-Nov-09 04:31N 35°23' E 139°40'0 0.0
2014-Nov-09 03:31N 35°23' E 139°40'0 0.0
2014-Nov-09 02:31N 35°23' E 139°40'0 0.0
2014-Nov-09 01:31N 35°23' E 139°40'0 0.0
2014-Nov-09 00:31N 35°23' E 139°40'0 0.0
2014-Nov-08 23:33N 35°23' E 139°40'0 0.0
2014-Nov-08 22:33N 35°23' E 139°40'0 0.0
2014-Nov-08 21:33N 35°23' E 139°40'0 0.0
2014-Nov-08 20:30N 35°23' E 139°40'0 0.0
2014-Nov-08 19:30N 35°23' E 139°40'0 0.0
2014-Nov-08 18:30N 35°23' E 139°40'0 0.0
2014-Nov-08 17:33N 35°23' E 139°40'0 0.0
2014-Nov-08 16:33N 35°23' E 139°40'0 0.0
2014-Nov-08 15:33N 35°23' E 139°40'0 0.0
2014-Nov-08 14:33N 35°23' E 139°40'0 0.0
2014-Nov-08 13:33N 35°23' E 139°40'0 0.0
2014-Nov-08 12:30N 35°23' E 139°40'0 0.0
2014-Nov-08 11:33N 35°23' E 139°40'0 0.0
2014-Nov-08 10:33N 35°23' E 139°40'0 0.0
2014-Nov-08 09:33N 35°23' E 139°40'0 0.0
2014-Nov-08 08:30N 35°23' E 139°40'0 0.2
2014-Nov-08 07:33N 35°23' E 139°40'7 7.0
2014-Nov-08 06:33N 35°29' E 139°45'1 1.1
2014-Nov-08 05:33N 35°30' E 139°46'0 0.0
2014-Nov-08 04:27N 35°30' E 139°46'0 0.0
2014-Nov-08 03:33N 35°30' E 139°46'0 0.0
2014-Nov-08 02:33N 35°30' E 139°46'0 0.0
2014-Nov-08 01:33N 35°30' E 139°46'0 0.0
2014-Nov-08 00:27N 35°30' E 139°46'0 0.0
2014-Nov-07 23:30N 35°30' E 139°46'0 0.0
2014-Nov-07 22:33N 35°30' E 139°46'0 0.0
2014-Nov-07 21:33N 35°30' E 139°46'0 0.0
2014-Nov-07 20:33N 35°30' E 139°46'0 0.0
2014-Nov-07 19:33N 35°30' E 139°46'0 0.0
2014-Nov-07 18:33N 35°30' E 139°46'0 0.0
2014-Nov-07 17:33N 35°30' E 139°46'0 0.0
2014-Nov-07 16:33N 35°30' E 139°46'0 0.0
2014-Nov-07 15:33N 35°30' E 139°46'0 0.0
2014-Nov-07 14:33N 35°30' E 139°46'0 0.0
2014-Nov-07 13:30N 35°30' E 139°46'0 0.0
2014-Nov-07 12:30N 35°30' E 139°46'0 0.0
2014-Nov-07 11:30N 35°30' E 139°46'0 0.0
2014-Nov-07 10:33N 35°30' E 139°46'0 0.0
2014-Nov-07 09:33N 35°30' E 139°46'0 0.0
2014-Nov-07 08:30N 35°30' E 139°46'0 0.0
2014-Nov-07 07:33N 35°30' E 139°46'0 0.0
2014-Nov-06 23:03N 35°30' E 139°46'0 0.0
2014-Nov-06 22:33N 35°30' E 139°46'2 2.4
2014-Nov-06 21:33N 35°29' E 139°48'0 0.0
2014-Nov-06 20:33N 35°29' E 139°48'0 0.0
2014-Nov-06 19:30N 35°29' E 139°48'0 0.0
2014-Nov-06 18:21N 35°29' E 139°48'0 0.1
2014-Nov-06 17:33N 35°29' E 139°48'0 0.1
2014-Nov-06 16:33N 35°29' E 139°48'7 6.9
2014-Nov-06 15:33N 35°22' E 139°45'7 7.2
2014-Nov-06 14:33N 35°15' E 139°47'  
Track history (hours):
 
Tides and Currents Weather Stations Pressure Air Temp Water Temp Dewpoint Dewpoint Depression Visibility Wind Speed Wind Dir Waves Ship Positions

Keumyang Family

Last reported at 2014-Nov-10 04:26 UTC. Time now 2014-Nov-28 12:17 UTC.
Position N 35°11' E 139°46'.
Warning: this ship's position is 18 days out of date.

Length 95 m; draft 4 m.

Type: Cargo ship. MMSI: 441416000.

Date/timePositionNaut miles runAvg speedWind from/ knotsBaromVisibWave heightAir tempDewpointWater temp
2014-Nov-10 04:26N 35°11' E 139°46'7 8.4
2014-Nov-10 03:33N 35°18' E 139°44'6 6.1
2014-Nov-10 02:31N 35°23' E 139°38'0 0.1
2014-Nov-10 01:31N 35°23' E 139°38'0 0.0
2014-Nov-10 00:28N 35°23' E 139°38'0 0.0
2014-Nov-09 23:31N 35°23' E 139°38'1 0.9
2014-Nov-09 22:31N 35°23' E 139°39'0 0.2
2014-Nov-09 21:31N 35°23' E 139°40'0 0.0
2014-Nov-09 20:31N 35°23' E 139°40'0 0.0
2014-Nov-09 19:31N 35°23' E 139°40'0 0.0
2014-Nov-09 18:31N 35°23' E 139°40'0 0.0
2014-Nov-09 17:31N 35°23' E 139°40'0 0.1
2014-Nov-09 16:31N 35°23' E 139°40'0 0.0
2014-Nov-09 15:31N 35°23' E 139°40'0 0.0
2014-Nov-09 14:31N 35°23' E 139°40'0 0.0
2014-Nov-09 13:31N 35°23' E 139°40'0 0.0
2014-Nov-09 12:31N 35°23' E 139°40'0 0.0
2014-Nov-09 11:31N 35°23' E 139°40'0 0.0
2014-Nov-09 10:31N 35°23' E 139°40'0 0.0
2014-Nov-09 09:28N 35°23' E 139°40'0 0.0
2014-Nov-09 08:31N 35°23' E 139°40'0 0.0
2014-Nov-09 07:31N 35°23' E 139°40'0 0.0
2014-Nov-09 06:31N 35°23' E 139°40'0 0.1
2014-Nov-09 05:31N 35°23' E 139°40'0 0.0
2014-Nov-09 04:31N 35°23' E 139°40'0 0.0
2014-Nov-09 03:31N 35°23' E 139°40'0 0.0
2014-Nov-09 02:31N 35°23' E 139°40'0 0.0
2014-Nov-09 01:31N 35°23' E 139°40'0 0.0
2014-Nov-09 00:31N 35°23' E 139°40'0 0.0
2014-Nov-08 23:33N 35°23' E 139°40'0 0.0
2014-Nov-08 22:33N 35°23' E 139°40'0 0.0
2014-Nov-08 21:33N 35°23' E 139°40'0 0.0
2014-Nov-08 20:30N 35°23' E 139°40'0 0.0
2014-Nov-08 19:30N 35°23' E 139°40'0 0.0
2014-Nov-08 18:30N 35°23' E 139°40'0 0.0
2014-Nov-08 17:33N 35°23' E 139°40'0 0.0
2014-Nov-08 16:33N 35°23' E 139°40'0 0.0
2014-Nov-08 15:33N 35°23' E 139°40'0 0.0
2014-Nov-08 14:33N 35°23' E 139°40'0 0.0
2014-Nov-08 13:33N 35°23' E 139°40'0 0.0
2014-Nov-08 12:30N 35°23' E 139°40'0 0.0
2014-Nov-08 11:33N 35°23' E 139°40'0 0.0
2014-Nov-08 10:33N 35°23' E 139°40'0 0.0
2014-Nov-08 09:33N 35°23' E 139°40'0 0.0
2014-Nov-08 08:30N 35°23' E 139°40'0 0.2
2014-Nov-08 07:33N 35°23' E 139°40'7 7.0
2014-Nov-08 06:33N 35°29' E 139°45'1 1.1
2014-Nov-08 05:33N 35°30' E 139°46'0 0.0
2014-Nov-08 04:27N 35°30' E 139°46'0 0.0
2014-Nov-08 03:33N 35°30' E 139°46'0 0.0
2014-Nov-08 02:33N 35°30' E 139°46'0 0.0
2014-Nov-08 01:33N 35°30' E 139°46'0 0.0
2014-Nov-08 00:27N 35°30' E 139°46'0 0.0
2014-Nov-07 23:30N 35°30' E 139°46'0 0.0
2014-Nov-07 22:33N 35°30' E 139°46'0 0.0
2014-Nov-07 21:33N 35°30' E 139°46'0 0.0
2014-Nov-07 20:33N 35°30' E 139°46'0 0.0
2014-Nov-07 19:33N 35°30' E 139°46'0 0.0
2014-Nov-07 18:33N 35°30' E 139°46'0 0.0
2014-Nov-07 17:33N 35°30' E 139°46'0 0.0
2014-Nov-07 16:33N 35°30' E 139°46'0 0.0
2014-Nov-07 15:33N 35°30' E 139°46'0 0.0
2014-Nov-07 14:33N 35°30' E 139°46'0 0.0
2014-Nov-07 13:30N 35°30' E 139°46'0 0.0
2014-Nov-07 12:30N 35°30' E 139°46'0 0.0
2014-Nov-07 11:30N 35°30' E 139°46'0 0.0
2014-Nov-07 10:33N 35°30' E 139°46'0 0.0
2014-Nov-07 09:33N 35°30' E 139°46'0 0.0
2014-Nov-07 08:30N 35°30' E 139°46'0 0.0
2014-Nov-07 07:33N 35°30' E 139°46'0 0.0
2014-Nov-06 23:03N 35°30' E 139°46'0 0.0
2014-Nov-06 22:33N 35°30' E 139°46'2 2.4
2014-Nov-06 21:33N 35°29' E 139°48'0 0.0
2014-Nov-06 20:33N 35°29' E 139°48'0 0.0
2014-Nov-06 19:30N 35°29' E 139°48'0 0.0
2014-Nov-06 18:21N 35°29' E 139°48'0 0.1
2014-Nov-06 17:33N 35°29' E 139°48'0 0.1
2014-Nov-06 16:33N 35°29' E 139°48'7 6.9
2014-Nov-06 15:33N 35°22' E 139°45'7 7.2
2014-Nov-06 14:33N 35°15' E 139°47'  

Dump ship's entire track history